createdAt,value
2019-01-26T00:00:52.746Z,5.80
2019-01-26T00:15:50.624Z,6.72
2019-01-26T00:30:50.568Z,10.58
2019-01-26T00:45:50.925Z,5.37
2019-01-26T01:00:50.871Z,7.50
2019-01-26T01:15:50.781Z,6.65
2019-01-26T01:30:51.231Z,9.63
2019-01-26T01:45:51.105Z,8.68
2019-01-26T02:00:51.054Z,8.13
2019-01-26T02:15:52.979Z,8.55
2019-01-26T02:30:51.725Z,7.72
2019-01-26T02:45:50.203Z,10.88
2019-01-26T03:00:53.795Z,10.78
2019-01-26T03:15:51.146Z,10.63
2019-01-26T03:30:51.635Z,10.82
2019-01-26T03:45:50.534Z,12.47
2019-01-26T04:00:51.436Z,16.90
2019-01-26T04:15:51.873Z,17.07
2019-01-26T04:30:51.273Z,19.48
2019-01-26T04:45:50.799Z,18.32
2019-01-26T05:00:52.635Z,21.27
2019-01-26T05:15:50.450Z,19.92
2019-01-26T05:30:51.416Z,27.10
2019-01-26T05:45:50.871Z,24.95
2019-01-26T06:00:50.881Z,27.40
2019-01-26T06:15:50.732Z,27.27
2019-01-26T06:30:50.637Z,32.67
2019-01-26T06:45:50.964Z,33.08
2019-01-26T07:00:50.965Z,34.70
2019-01-26T07:15:51.011Z,31.75
2019-01-26T07:45:51.187Z,35.30
2019-01-26T08:00:51.113Z,37.28
2019-01-26T08:15:50.582Z,43.35
2019-01-26T08:30:50.961Z,37.63
2019-01-26T08:45:51.417Z,42.73
2019-01-26T09:00:51.594Z,35.20
2019-01-26T09:15:51.333Z,36.58
2019-01-26T09:30:50.644Z,33.10
2019-01-26T09:45:50.549Z,32.20
2019-01-26T10:00:50.520Z,36.85
2019-01-26T10:15:50.617Z,36.70
2019-01-26T10:30:55.466Z,35.50
2019-01-26T10:45:52.276Z,36.23
2019-01-26T11:00:51.243Z,30.97
2019-01-26T11:15:50.688Z,30.40
2019-01-26T11:30:50.655Z,34.27
2019-01-26T11:45:56.073Z,36.23
2019-01-26T12:15:50.976Z,40.55
2019-01-26T12:30:50.872Z,35.03
2019-01-26T12:45:51.385Z,33.73
2019-01-26T13:00:51.489Z,30.75
2019-01-26T13:15:53.832Z,37.10
2019-01-26T13:30:53.553Z,38.65
2019-01-26T13:45:54.894Z,35.55
2019-01-26T14:00:59.811Z,39.95
2019-01-26T14:15:53.400Z,38.70
2019-01-26T14:30:55.748Z,44.33
2019-01-26T14:45:51.244Z,42.73
2019-01-26T15:00:50.648Z,38.60
2019-01-26T15:15:51.116Z,48.10
2019-01-26T15:30:51.003Z,49.25
2019-01-26T15:45:51.695Z,45.28
2019-01-26T16:00:51.453Z,42.38
2019-01-26T16:15:51.086Z,45.55
2019-01-26T16:30:53.366Z,51.70
2019-01-26T16:45:51.717Z,56.83
2019-01-26T17:00:53.482Z,59.58
2019-01-26T17:15:51.092Z,61.20
2019-01-26T17:30:50.996Z,51.68
2019-01-26T17:45:50.667Z,53.60
2019-01-26T18:00:55.932Z,50.20
2019-01-26T18:15:55.403Z,50.00
2019-01-26T18:30:54.412Z,45.88
2019-01-26T18:45:50.786Z,47.88
2019-01-26T19:00:51.581Z,51.40
2019-01-26T19:15:58.078Z,48.00
2019-01-26T19:30:52.052Z,44.90
2019-01-26T19:45:52.089Z,47.98
2019-01-26T20:00:51.852Z,47.73
2019-01-26T20:15:55.786Z,50.58
2019-01-26T20:30:53.061Z,54.05
2019-01-26T20:45:51.225Z,52.27
2019-01-26T21:00:51.656Z,49.50
2019-01-26T21:15:51.447Z,48.08
2019-01-26T21:30:51.991Z,46.88
2019-01-26T21:45:53.519Z,48.80
2019-01-26T22:00:53.325Z,51.05
2019-01-26T22:15:51.356Z,43.33
2019-01-26T22:30:51.322Z,42.65
2019-01-26T22:45:50.709Z,37.17
2019-01-26T23:45:50.910Z,37.60
